sensor_id;sensor_type;location;lat;lon;timestamp;temperature;humidity
8400;DHT22;4237;47.030;15.396;2024-01-25T00:01:18;10.10;99.90
8400;DHT22;4237;47.030;15.396;2024-01-25T00:03:46;10.40;99.90
8400;DHT22;4237;47.030;15.396;2024-01-25T00:06:15;10.60;99.90
8400;DHT22;4237;47.030;15.396;2024-01-25T00:08:44;10.50;99.90
8400;DHT22;4237;47.030;15.396;2024-01-25T00:11:12;10.70;99.90
8400;DHT22;4237;47.030;15.396;2024-01-25T00:13:41;10.70;99.90
8400;DHT22;4237;47.030;15.396;2024-01-25T00:16:09;10.70;99.90
8400;DHT22;4237;47.030;15.396;2024-01-25T00:18:38;10.60;99.90
8400;DHT22;4237;47.030;15.396;2024-01-25T00:21:07;10.70;99.90
8400;DHT22;4237;47.030;15.396;2024-01-25T00:23:35;10.60;99.90
8400;DHT22;4237;47.030;15.396;2024-01-25T00:26:04;10.80;99.90
8400;DHT22;4237;47.030;15.396;2024-01-25T00:28:32;10.70;99.90
8400;DHT22;4237;47.030;15.396;2024-01-25T00:31:01;10.70;99.90
8400;DHT22;4237;47.030;15.396;2024-01-25T00:33:29;10.60;99.90
8400;DHT22;4237;47.030;15.396;2024-01-25T00:35:58;10.60;99.90
8400;DHT22;4237;47.030;15.396;2024-01-25T00:38:27;10.60;99.90
8400;DHT22;4237;47.030;15.396;2024-01-25T00:40:56;10.50;99.90
8400;DHT22;4237;47.030;15.396;2024-01-25T00:43:25;10.40;99.90
8400;DHT22;4237;47.030;15.396;2024-01-25T00:45:53;10.40;99.90
8400;DHT22;4237;47.030;15.396;2024-01-25T00:48:22;10.50;99.90
8400;DHT22;4237;47.030;15.396;2024-01-25T00:50:51;10.70;99.90
8400;DHT22;4237;47.030;15.396;2024-01-25T00:53:20;10.60;99.90
8400;DHT22;4237;47.030;15.396;2024-01-25T00:55:49;10.60;99.90
8400;DHT22;4237;47.030;15.396;2024-01-25T00:58:18;10.50;99.90
8400;DHT22;4237;47.030;15.396;2024-01-25T01:00:46;10.50;99.90
8400;DHT22;4237;47.030;15.396;2024-01-25T01:03:18;10.30;99.90
8400;DHT22;4237;47.030;15.396;2024-01-25T01:05:47;10.40;99.90
8400;DHT22;4237;47.030;15.396;2024-01-25T01:08:16;10.40;99.90
8400;DHT22;4237;47.030;15.396;2024-01-25T01:10:44;10.30;99.90
8400;DHT22;4237;47.030;15.396;2024-01-25T01:13:14;10.30;99.90
8400;DHT22;4237;47.030;15.396;2024-01-25T01:15:42;10.30;99.90
8400;DHT22;4237;47.030;15.396;2024-01-25T01:18:11;10.20;99.90
8400;DHT22;4237;47.030;15.396;2024-01-25T01:20:39;10.10;99.90
8400;DHT22;4237;47.030;15.396;2024-01-25T01:23:08;10.10;99.90
8400;DHT22;4237;47.030;15.396;2024-01-25T01:25:36;10.00;99.90
8400;DHT22;4237;47.030;15.396;2024-01-25T01:28:05;10.00;99.90
8400;DHT22;4237;47.030;15.396;2024-01-25T01:30:33;10.10;99.90
8400;DHT22;4237;47.030;15.396;2024-01-25T01:33:02;9.80;99.90
8400;DHT22;4237;47.030;15.396;2024-01-25T01:35:31;9.80;99.90
8400;DHT22;4237;47.030;15.396;2024-01-25T01:37:59;9.70;99.90
8400;DHT22;4237;47.030;15.396;2024-01-25T01:40:28;9.70;99.90
8400;DHT22;4237;47.030;15.396;2024-01-25T01:43:01;9.50;99.90
8400;DHT22;4237;47.030;15.396;2024-01-25T01:45:30;9.30;99.90
8400;DHT22;4237;47.030;15.396;2024-01-25T01:47:59;9.00;99.90
8400;DHT22;4237;47.030;15.396;2024-01-25T01:50:28;9.30;99.90
8400;DHT22;4237;47.030;15.396;2024-01-25T01:52:56;9.20;99.90
8400;DHT22;4237;47.030;15.396;2024-01-25T01:55:25;8.90;99.90
8400;DHT22;4237;47.030;15.396;2024-01-25T01:57:54;8.70;99.90
8400;DHT22;4237;47.030;15.396;2024-01-25T02:00:24;8.50;99.90
8400;DHT22;4237;47.030;15.396;2024-01-25T02:02:53;8.60;99.90
8400;DHT22;4237;47.030;15.396;2024-01-25T02:05:22;8.60;99.90
8400;DHT22;4237;47.030;15.396;2024-01-25T02:07:51;8.60;99.90
8400;DHT22;4237;47.030;15.396;2024-01-25T02:10:20;8.40;99.90
8400;DHT22;4237;47.030;15.396;2024-01-25T02:12:48;8.20;99.90
8400;DHT22;4237;47.030;15.396;2024-01-25T02:15:17;8.00;99.90
8400;DHT22;4237;47.030;15.396;2024-01-25T02:17:46;7.80;99.90
8400;DHT22;4237;47.030;15.396;2024-01-25T02:20:17;7.60;99.90
8400;DHT22;4237;47.030;15.396;2024-01-25T02:22:45;7.30;99.90
8400;DHT22;4237;47.030;15.396;2024-01-25T02:25:14;7.10;99.90
8400;DHT22;4237;47.030;15.396;2024-01-25T02:27:42;7.00;99.90
8400;DHT22;4237;47.030;15.396;2024-01-25T02:30:11;6.90;99.90
8400;DHT22;4237;47.030;15.396;2024-01-25T02:32:40;6.70;99.90
8400;DHT22;4237;47.030;15.396;2024-01-25T02:35:10;6.60;99.90
8400;DHT22;4237;47.030;15.396;2024-01-25T02:37:39;6.50;99.90
8400;DHT22;4237;47.030;15.396;2024-01-25T02:40:08;6.30;99.90
8400;DHT22;4237;47.030;15.396;2024-01-25T02:42:36;6.20;99.90
8400;DHT22;4237;47.030;15.396;2024-01-25T02:45:05;6.10;99.90
8400;DHT22;4237;47.030;15.396;2024-01-25T02:47:34;5.90;99.90
8400;DHT22;4237;47.030;15.396;2024-01-25T02:50:02;5.80;99.90
8400;DHT22;4237;47.030;15.396;2024-01-25T02:52:31;5.70;99.90
8400;DHT22;4237;47.030;15.396;2024-01-25T02:55:00;5.60;99.90
8400;DHT22;4237;47.030;15.396;2024-01-25T02:57:28;5.60;99.90
8400;DHT22;4237;47.030;15.396;2024-01-25T02:59:58;5.50;99.90
8400;DHT22;4237;47.030;15.396;2024-01-25T03:02:27;5.40;99.90
8400;DHT22;4237;47.030;15.396;2024-01-25T03:04:56;5.30;99.90
8400;DHT22;4237;47.030;15.396;2024-01-25T03:07:24;5.20;99.90
8400;DHT22;4237;47.030;15.396;2024-01-25T03:09:53;5.10;99.90
8400;DHT22;4237;47.030;15.396;2024-01-25T03:12:21;4.90;99.90
8400;DHT22;4237;47.030;15.396;2024-01-25T03:14:50;5.10;99.90
8400;DHT22;4237;47.030;15.396;2024-01-25T03:17:19;5.60;99.90
8400;DHT22;4237;47.030;15.396;2024-01-25T03:19:47;6.60;99.90
8400;DHT22;4237;47.030;15.396;2024-01-25T03:22:16;7.10;99.90
8400;DHT22;4237;47.030;15.396;2024-01-25T03:24:45;7.40;99.90
8400;DHT22;4237;47.030;15.396;2024-01-25T03:27:14;7.50;99.90
8400;DHT22;4237;47.030;15.396;2024-01-25T03:29:43;7.80;99.90
8400;DHT22;4237;47.030;15.396;2024-01-25T03:32:12;8.20;99.90
8400;DHT22;4237;47.030;15.396;2024-01-25T03:34:40;8.20;99.90
8400;DHT22;4237;47.030;15.396;2024-01-25T03:37:09;8.30;99.90
8400;DHT22;4237;47.030;15.396;2024-01-25T03:39:37;8.30;99.90
8400;DHT22;4237;47.030;15.396;2024-01-25T03:42:06;8.50;99.90
8400;DHT22;4237;47.030;15.396;2024-01-25T03:44:35;8.70;99.90
8400;DHT22;4237;47.030;15.396;2024-01-25T03:47:03;8.80;99.90
8400;DHT22;4237;47.030;15.396;2024-01-25T03:49:32;8.90;99.90
8400;DHT22;4237;47.030;15.396;2024-01-25T03:52:00;8.90;99.90
8400;DHT22;4237;47.030;15.396;2024-01-25T03:54:29;8.90;99.90
8400;DHT22;4237;47.030;15.396;2024-01-25T03:56:57;8.80;99.90
8400;DHT22;4237;47.030;15.396;2024-01-25T03:59:26;9.00;99.90
8400;DHT22;4237;47.030;15.396;2024-01-25T04:01:54;8.90;99.90
8400;DHT22;4237;47.030;15.396;2024-01-25T04:04:23;8.90;99.90
8400;DHT22;4237;47.030;15.396;2024-01-25T04:06:52;8.90;99.90
8400;DHT22;4237;47.030;15.396;2024-01-25T04:09:20;8.90;99.90
8400;DHT22;4237;47.030;15.396;2024-01-25T04:11:49;8.70;99.90
8400;DHT22;4237;47.030;15.396;2024-01-25T04:14:17;8.80;99.90
8400;DHT22;4237;47.030;15.396;2024-01-25T04:16:46;9.00;99.90
8400;DHT22;4237;47.030;15.396;2024-01-25T04:19:15;8.90;99.90
8400;DHT22;4237;47.030;15.396;2024-01-25T04:21:43;9.00;99.90
8400;DHT22;4237;47.030;15.396;2024-01-25T04:24:12;9.00;99.90
8400;DHT22;4237;47.030;15.396;2024-01-25T04:26:40;8.40;99.90
8400;DHT22;4237;47.030;15.396;2024-01-25T04:29:09;9.00;99.90
8400;DHT22;4237;47.030;15.396;2024-01-25T04:31:42;9.20;99.90
8400;DHT22;4237;47.030;15.396;2024-01-25T04:34:13;8.80;99.90
8400;DHT22;4237;47.030;15.396;2024-01-25T04:36:42;8.70;99.90
8400;DHT22;4237;47.030;15.396;2024-01-25T04:39:11;8.70;99.90
8400;DHT22;4237;47.030;15.396;2024-01-25T04:41:40;8.60;99.90
8400;DHT22;4237;47.030;15.396;2024-01-25T04:44:08;8.40;99.90
8400;DHT22;4237;47.030;15.396;2024-01-25T04:46:37;8.30;99.90
8400;DHT22;4237;47.030;15.396;2024-01-25T04:49:05;8.30;99.90
8400;DHT22;4237;47.030;15.396;2024-01-25T04:51:34;8.50;99.90
8400;DHT22;4237;47.030;15.396;2024-01-25T04:54:03;8.50;99.90
8400;DHT22;4237;47.030;15.396;2024-01-25T04:56:31;8.50;99.90
8400;DHT22;4237;47.030;15.396;2024-01-25T04:59:00;8.40;99.90
8400;DHT22;4237;47.030;15.396;2024-01-25T05:01:29;8.40;99.90
8400;DHT22;4237;47.030;15.396;2024-01-25T05:03:57;8.30;99.90
8400;DHT22;4237;47.030;15.396;2024-01-25T05:06:26;8.20;99.90
8400;DHT22;4237;47.030;15.396;2024-01-25T05:08:54;8.10;99.90
8400;DHT22;4237;47.030;15.396;2024-01-25T05:11:23;8.10;99.90
8400;DHT22;4237;47.030;15.396;2024-01-25T05:13:51;8.10;99.90
8400;DHT22;4237;47.030;15.396;2024-01-25T05:16:20;8.00;99.90
8400;DHT22;4237;47.030;15.396;2024-01-25T05:18:48;7.90;99.90
8400;DHT22;4237;47.030;15.396;2024-01-25T05:21:17;7.90;99.90
8400;DHT22;4237;47.030;15.396;2024-01-25T05:23:45;7.90;99.90
8400;DHT22;4237;47.030;15.396;2024-01-25T05:26:15;7.70;99.90
8400;DHT22;4237;47.030;15.396;2024-01-25T05:28:44;7.70;99.90
8400;DHT22;4237;47.030;15.396;2024-01-25T05:31:13;7.60;99.90
8400;DHT22;4237;47.030;15.396;2024-01-25T05:33:42;7.50;99.90
8400;DHT22;4237;47.030;15.396;2024-01-25T05:36:11;7.50;99.90
8400;DHT22;4237;47.030;15.396;2024-01-25T05:38:41;7.40;99.90
8400;DHT22;4237;47.030;15.396;2024-01-25T05:41:09;7.30;99.90
8400;DHT22;4237;47.030;15.396;2024-01-25T05:43:38;7.10;99.90
8400;DHT22;4237;47.030;15.396;2024-01-25T05:46:07;6.90;99.90
8400;DHT22;4237;47.030;15.396;2024-01-25T05:48:37;6.80;99.90
8400;DHT22;4237;47.030;15.396;2024-01-25T05:51:06;6.50;99.90
8400;DHT22;4237;47.030;15.396;2024-01-25T05:53:34;6.20;99.90
8400;DHT22;4237;47.030;15.396;2024-01-25T05:56:03;6.00;99.90
8400;DHT22;4237;47.030;15.396;2024-01-25T05:58:32;5.90;99.90
8400;DHT22;4237;47.030;15.396;2024-01-25T06:01:00;5.60;99.90
8400;DHT22;4237;47.030;15.396;2024-01-25T06:03:30;5.60;99.90
8400;DHT22;4237;47.030;15.396;2024-01-25T06:05:58;5.30;99.90
8400;DHT22;4237;47.030;15.396;2024-01-25T06:08:27;5.20;99.90
8400;DHT22;4237;47.030;15.396;2024-01-25T06:10:56;5.10;99.90
8400;DHT22;4237;47.030;15.396;2024-01-25T06:13:24;4.90;99.90
8400;DHT22;4237;47.030;15.396;2024-01-25T06:15:53;4.90;99.90
8400;DHT22;4237;47.030;15.396;2024-01-25T06:18:21;4.90;99.90
8400;DHT22;4237;47.030;15.396;2024-01-25T06:20:50;4.80;99.90
8400;DHT22;4237;47.030;15.396;2024-01-25T06:23:19;4.70;99.90
8400;DHT22;4237;47.030;15.396;2024-01-25T06:25:47;4.70;99.90
8400;DHT22;4237;47.030;15.396;2024-01-25T06:28:16;4.60;99.90
8400;DHT22;4237;47.030;15.396;2024-01-25T06:30:45;4.60;99.90
8400;DHT22;4237;47.030;15.396;2024-01-25T06:33:14;4.50;99.90
8400;DHT22;4237;47.030;15.396;2024-01-25T06:35:42;4.50;99.90
8400;DHT22;4237;47.030;15.396;2024-01-25T06:38:11;4.60;99.90
8400;DHT22;4237;47.030;15.396;2024-01-25T06:40:39;4.80;99.90
8400;DHT22;4237;47.030;15.396;2024-01-25T06:43:08;4.80;99.90
8400;DHT22;4237;47.030;15.396;2024-01-25T06:45:36;4.80;99.90
8400;DHT22;4237;47.030;15.396;2024-01-25T06:48:07;4.80;99.90
8400;DHT22;4237;47.030;15.396;2024-01-25T06:50:39;4.80;99.90
8400;DHT22;4237;47.030;15.396;2024-01-25T06:53:07;4.70;99.90
8400;DHT22;4237;47.030;15.396;2024-01-25T06:55:36;4.70;99.90
8400;DHT22;4237;47.030;15.396;2024-01-25T06:58:04;4.70;99.90
8400;DHT22;4237;47.030;15.396;2024-01-25T07:00:33;4.70;99.90
8400;DHT22;4237;47.030;15.396;2024-01-25T07:03:02;4.90;99.90
8400;DHT22;4237;47.030;15.396;2024-01-25T07:05:31;4.80;99.90
8400;DHT22;4237;47.030;15.396;2024-01-25T07:08:02;5.50;99.90
8400;DHT22;4237;47.030;15.396;2024-01-25T07:10:31;5.60;99.90
8400;DHT22;4237;47.030;15.396;2024-01-25T07:12:59;6.40;99.90
8400;DHT22;4237;47.030;15.396;2024-01-25T07:15:28;7.20;99.90
8400;DHT22;4237;47.030;15.396;2024-01-25T07:17:56;8.40;99.90
8400;DHT22;4237;47.030;15.396;2024-01-25T07:20:25;10.00;99.90
8400;DHT22;4237;47.030;15.396;2024-01-25T07:22:54;11.20;99.90
8400;DHT22;4237;47.030;15.396;2024-01-25T07:25:22;12.10;99.90
8400;DHT22;4237;47.030;15.396;2024-01-25T07:27:51;12.20;99.90
8400;DHT22;4237;47.030;15.396;2024-01-25T07:30:20;12.70;99.90
8400;DHT22;4237;47.030;15.396;2024-01-25T07:32:48;13.50;99.90
8400;DHT22;4237;47.030;15.396;2024-01-25T07:35:17;13.90;99.90
8400;DHT22;4237;47.030;15.396;2024-01-25T07:37:45;15.30;99.90
8400;DHT22;4237;47.030;15.396;2024-01-25T07:40:14;16.30;99.90
8400;DHT22;4237;47.030;15.396;2024-01-25T07:42:43;16.40;99.90
8400;DHT22;4237;47.030;15.396;2024-01-25T07:45:11;16.90;99.90
8400;DHT22;4237;47.030;15.396;2024-01-25T07:47:43;17.00;99.90
8400;DHT22;4237;47.030;15.396;2024-01-25T07:50:12;17.30;99.90
8400;DHT22;4237;47.030;15.396;2024-01-25T07:52:40;17.80;99.90
8400;DHT22;4237;47.030;15.396;2024-01-25T07:55:09;18.60;99.90
8400;DHT22;4237;47.030;15.396;2024-01-25T07:57:37;19.30;99.90
8400;DHT22;4237;47.030;15.396;2024-01-25T08:00:06;20.10;99.90
8400;DHT22;4237;47.030;15.396;2024-01-25T08:02:36;20.40;99.90
8400;DHT22;4237;47.030;15.396;2024-01-25T08:05:06;21.00;99.90
8400;DHT22;4237;47.030;15.396;2024-01-25T08:07:36;21.10;99.90
8400;DHT22;4237;47.030;15.396;2024-01-25T08:10:05;20.10;99.90
8400;DHT22;4237;47.030;15.396;2024-01-25T08:12:34;19.00;99.90
8400;DHT22;4237;47.030;15.396;2024-01-25T08:15:04;18.90;99.90
8400;DHT22;4237;47.030;15.396;2024-01-25T08:17:32;19.90;99.90
8400;DHT22;4237;47.030;15.396;2024-01-25T08:20:03;20.70;99.90
8400;DHT22;4237;47.030;15.396;2024-01-25T08:22:33;21.60;99.90
8400;DHT22;4237;47.030;15.396;2024-01-25T08:25:02;21.90;99.30
8400;DHT22;4237;47.030;15.396;2024-01-25T08:27:32;22.20;98.30
8400;DHT22;4237;47.030;15.396;2024-01-25T08:30:00;21.10;98.90
8400;DHT22;4237;47.030;15.396;2024-01-25T08:32:30;21.30;99.20
8400;DHT22;4237;47.030;15.396;2024-01-25T08:34:59;21.80;99.00
8400;DHT22;4237;47.030;15.396;2024-01-25T08:37:27;21.70;98.70
8400;DHT22;4237;47.030;15.396;2024-01-25T08:39:56;22.30;98.10
8400;DHT22;4237;47.030;15.396;2024-01-25T08:42:24;22.30;97.90
8400;DHT22;4237;47.030;15.396;2024-01-25T08:44:53;22.40;97.40
8400;DHT22;4237;47.030;15.396;2024-01-25T08:47:22;23.20;96.80
8400;DHT22;4237;47.030;15.396;2024-01-25T08:49:50;23.70;96.40
8400;DHT22;4237;47.030;15.396;2024-01-25T08:52:19;23.00;95.70
8400;DHT22;4237;47.030;15.396;2024-01-25T08:54:47;23.30;96.20
8400;DHT22;4237;47.030;15.396;2024-01-25T08:57:16;23.50;95.30
8400;DHT22;4237;47.030;15.396;2024-01-25T08:59:45;24.00;95.20
8400;DHT22;4237;47.030;15.396;2024-01-25T09:02:13;25.50;94.20
8400;DHT22;4237;47.030;15.396;2024-01-25T09:04:42;25.70;93.40
8400;DHT22;4237;47.030;15.396;2024-01-25T09:07:10;26.70;92.70
8400;DHT22;4237;47.030;15.396;2024-01-25T09:09:39;26.90;91.90
8400;DHT22;4237;47.030;15.396;2024-01-25T09:12:07;27.20;91.40
8400;DHT22;4237;47.030;15.396;2024-01-25T09:14:38;26.30;91.70
8400;DHT22;4237;47.030;15.396;2024-01-25T09:17:08;26.30;94.70
8400;DHT22;4237;47.030;15.396;2024-01-25T09:19:37;25.60;92.50
8400;DHT22;4237;47.030;15.396;2024-01-25T09:22:07;26.70;91.00
8400;DHT22;4237;47.030;15.396;2024-01-25T09:24:37;27.30;91.20
8400;DHT22;4237;47.030;15.396;2024-01-25T09:27:07;27.80;90.00
8400;DHT22;4237;47.030;15.396;2024-01-25T09:29:36;25.50;91.30
8400;DHT22;4237;47.030;15.396;2024-01-25T09:32:07;26.40;90.80
8400;DHT22;4237;47.030;15.396;2024-01-25T09:34:38;26.10;89.30
8400;DHT22;4237;47.030;15.396;2024-01-25T09:37:06;26.70;90.50
8400;DHT22;4237;47.030;15.396;2024-01-25T09:39:35;25.30;87.90
8400;DHT22;4237;47.030;15.396;2024-01-25T09:42:04;24.20;88.60
8400;DHT22;4237;47.030;15.396;2024-01-25T09:44:33;25.80;87.60
8400;DHT22;4237;47.030;15.396;2024-01-25T09:47:04;26.90;87.50
8400;DHT22;4237;47.030;15.396;2024-01-25T09:49:35;27.50;84.70
8400;DHT22;4237;47.030;15.396;2024-01-25T09:52:04;26.30;83.20
8400;DHT22;4237;47.030;15.396;2024-01-25T09:54:36;26.70;83.80
8400;DHT22;4237;47.030;15.396;2024-01-25T09:57:08;27.70;84.00
8400;DHT22;4237;47.030;15.396;2024-01-25T09:59:36;26.80;83.00
8400;DHT22;4237;47.030;15.396;2024-01-25T10:02:04;26.80;83.30
8400;DHT22;4237;47.030;15.396;2024-01-25T10:04:33;27.30;82.50
8400;DHT22;4237;47.030;15.396;2024-01-25T10:07:01;27.00;82.00
8400;DHT22;4237;47.030;15.396;2024-01-25T10:09:40;26.70;82.70
8400;DHT22;4237;47.030;15.396;2024-01-25T10:12:09;27.00;80.50
8400;DHT22;4237;47.030;15.396;2024-01-25T10:14:38;27.10;79.80
8400;DHT22;4237;47.030;15.396;2024-01-25T10:17:07;26.30;80.90
8400;DHT22;4237;47.030;15.396;2024-01-25T10:19:35;26.40;81.00
8400;DHT22;4237;47.030;15.396;2024-01-25T10:22:06;25.90;80.90
8400;DHT22;4237;47.030;15.396;2024-01-25T10:24:36;26.90;79.00
8400;DHT22;4237;47.030;15.396;2024-01-25T10:27:05;27.90;79.30
8400;DHT22;4237;47.030;15.396;2024-01-25T10:29:35;28.50;77.60
8400;DHT22;4237;47.030;15.396;2024-01-25T10:32:03;28.80;77.10
8400;DHT22;4237;47.030;15.396;2024-01-25T10:34:34;28.50;76.50
8400;DHT22;4237;47.030;15.396;2024-01-25T10:37:05;27.70;75.10
8400;DHT22;4237;47.030;15.396;2024-01-25T10:39:35;27.30;76.70
8400;DHT22;4237;47.030;15.396;2024-01-25T10:42:04;27.60;74.30
8400;DHT22;4237;47.030;15.396;2024-01-25T10:44:32;27.10;74.40
8400;DHT22;4237;47.030;15.396;2024-01-25T10:47:02;28.20;75.30
8400;DHT22;4237;47.030;15.396;2024-01-25T10:49:31;28.00;75.10
8400;DHT22;4237;47.030;15.396;2024-01-25T10:52:00;27.70;74.20
8400;DHT22;4237;47.030;15.396;2024-01-25T10:54:29;29.00;72.80
8400;DHT22;4237;47.030;15.396;2024-01-25T10:56:58;28.50;71.50
8400;DHT22;4237;47.030;15.396;2024-01-25T10:59:28;28.80;70.90
8400;DHT22;4237;47.030;15.396;2024-01-25T11:01:58;28.60;70.50
8400;DHT22;4237;47.030;15.396;2024-01-25T11:04:29;27.80;71.10
8400;DHT22;4237;47.030;15.396;2024-01-25T11:07:08;27.50;71.50
8400;DHT22;4237;47.030;15.396;2024-01-25T11:09:39;27.60;71.60
8400;DHT22;4237;47.030;15.396;2024-01-25T11:12:13;28.10;70.70
8400;DHT22;4237;47.030;15.396;2024-01-25T11:14:42;27.40;69.20
8400;DHT22;4237;47.030;15.396;2024-01-25T11:17:21;26.90;70.90
8400;DHT22;4237;47.030;15.396;2024-01-25T11:19:51;26.70;69.20
8400;DHT22;4237;47.030;15.396;2024-01-25T11:22:20;25.70;70.30
8400;DHT22;4237;47.030;15.396;2024-01-25T11:24:49;24.90;69.60
8400;DHT22;4237;47.030;15.396;2024-01-25T11:27:18;25.50;71.00
8400;DHT22;4237;47.030;15.396;2024-01-25T11:29:48;26.00;69.70
8400;DHT22;4237;47.030;15.396;2024-01-25T11:32:17;26.00;69.40
8400;DHT22;4237;47.030;15.396;2024-01-25T11:34:45;26.10;69.30
8400;DHT22;4237;47.030;15.396;2024-01-25T11:37:15;27.40;69.00
8400;DHT22;4237;47.030;15.396;2024-01-25T11:39:45;27.40;68.20
8400;DHT22;4237;47.030;15.396;2024-01-25T11:42:13;26.90;68.40
8400;DHT22;4237;47.030;15.396;2024-01-25T11:44:43;27.50;67.80
8400;DHT22;4237;47.030;15.396;2024-01-25T11:47:11;27.40;66.90
8400;DHT22;4237;47.030;15.396;2024-01-25T11:49:40;27.40;66.70
8400;DHT22;4237;47.030;15.396;2024-01-25T11:52:09;27.60;67.30
8400;DHT22;4237;47.030;15.396;2024-01-25T11:54:38;28.60;66.10
8400;DHT22;4237;47.030;15.396;2024-01-25T11:57:07;28.20;66.00
8400;DHT22;4237;47.030;15.396;2024-01-25T11:59:36;27.30;65.40
8400;DHT22;4237;47.030;15.396;2024-01-25T12:02:05;27.00;66.40
8400;DHT22;4237;47.030;15.396;2024-01-25T12:04:33;27.00;66.70
8400;DHT22;4237;47.030;15.396;2024-01-25T12:07:03;26.30;67.40
8400;DHT22;4237;47.030;15.396;2024-01-25T12:09:32;26.90;66.20
8400;DHT22;4237;47.030;15.396;2024-01-25T12:12:01;27.10;65.50
8400;DHT22;4237;47.030;15.396;2024-01-25T12:14:29;28.10;65.80
8400;DHT22;4237;47.030;15.396;2024-01-25T12:16:58;28.60;65.60
8400;DHT22;4237;47.030;15.396;2024-01-25T12:19:28;29.00;65.10
8400;DHT22;4237;47.030;15.396;2024-01-25T12:21:57;29.20;65.10
8400;DHT22;4237;47.030;15.396;2024-01-25T12:24:25;29.20;64.70
8400;DHT22;4237;47.030;15.396;2024-01-25T12:26:54;29.10;65.20
8400;DHT22;4237;47.030;15.396;2024-01-25T12:29:23;28.50;63.80
8400;DHT22;4237;47.030;15.396;2024-01-25T12:31:52;28.20;64.40
8400;DHT22;4237;47.030;15.396;2024-01-25T12:34:20;27.30;65.20
8400;DHT22;4237;47.030;15.396;2024-01-25T12:36:49;26.80;65.30
8400;DHT22;4237;47.030;15.396;2024-01-25T12:39:17;26.90;66.00
8400;DHT22;4237;47.030;15.396;2024-01-25T12:41:46;26.70;65.90
8400;DHT22;4237;47.030;15.396;2024-01-25T12:44:15;25.90;66.60
8400;DHT22;4237;47.030;15.396;2024-01-25T12:46:44;25.60;67.00
8400;DHT22;4237;47.030;15.396;2024-01-25T12:49:12;26.40;67.80
8400;DHT22;4237;47.030;15.396;2024-01-25T12:51:41;26.40;65.30
8400;DHT22;4237;47.030;15.396;2024-01-25T12:54:10;26.10;65.40
8400;DHT22;4237;47.030;15.396;2024-01-25T12:56:38;25.90;66.20
8400;DHT22;4237;47.030;15.396;2024-01-25T12:59:08;25.00;66.80
8400;DHT22;4237;47.030;15.396;2024-01-25T13:01:36;25.50;67.10
8400;DHT22;4237;47.030;15.396;2024-01-25T13:04:05;24.70;67.30
8400;DHT22;4237;47.030;15.396;2024-01-25T13:06:33;23.50;68.20
8400;DHT22;4237;47.030;15.396;2024-01-25T13:09:02;23.20;69.30
8400;DHT22;4237;47.030;15.396;2024-01-25T13:11:31;23.70;69.80
8400;DHT22;4237;47.030;15.396;2024-01-25T13:14:00;24.70;69.00
8400;DHT22;4237;47.030;15.396;2024-01-25T13:16:28;25.10;68.20
8400;DHT22;4237;47.030;15.396;2024-01-25T13:18:57;25.20;67.90
8400;DHT22;4237;47.030;15.396;2024-01-25T13:21:25;25.40;67.80
8400;DHT22;4237;47.030;15.396;2024-01-25T13:23:54;25.50;67.20
8400;DHT22;4237;47.030;15.396;2024-01-25T13:26:22;26.50;66.40
8400;DHT22;4237;47.030;15.396;2024-01-25T13:28:51;26.20;65.50
8400;DHT22;4237;47.030;15.396;2024-01-25T13:31:19;26.90;65.60
8400;DHT22;4237;47.030;15.396;2024-01-25T13:33:48;26.70;64.40
8400;DHT22;4237;47.030;15.396;2024-01-25T13:36:16;27.30;63.50
8400;DHT22;4237;47.030;15.396;2024-01-25T13:38:45;26.80;64.10
8400;DHT22;4237;47.030;15.396;2024-01-25T13:41:13;27.00;64.40
8400;DHT22;4237;47.030;15.396;2024-01-25T13:43:42;27.30;63.70
8400;DHT22;4237;47.030;15.396;2024-01-25T13:46:11;27.40;63.90
8400;DHT22;4237;47.030;15.396;2024-01-25T13:48:39;27.70;63.50
8400;DHT22;4237;47.030;15.396;2024-01-25T13:51:08;27.90;62.90
8400;DHT22;4237;47.030;15.396;2024-01-25T13:53:36;27.60;62.90
8400;DHT22;4237;47.030;15.396;2024-01-25T13:56:05;27.00;62.60
8400;DHT22;4237;47.030;15.396;2024-01-25T13:58:34;26.80;62.30
8400;DHT22;4237;47.030;15.396;2024-01-25T14:01:02;27.80;62.50
8400;DHT22;4237;47.030;15.396;2024-01-25T14:03:32;27.90;62.20
8400;DHT22;4237;47.030;15.396;2024-01-25T14:06:00;27.90;62.10
8400;DHT22;4237;47.030;15.396;2024-01-25T14:08:31;27.70;61.80
8400;DHT22;4237;47.030;15.396;2024-01-25T14:11:03;27.60;61.10
8400;DHT22;4237;47.030;15.396;2024-01-25T14:13:33;27.80;61.00
8400;DHT22;4237;47.030;15.396;2024-01-25T14:16:02;28.00;59.90
8400;DHT22;4237;47.030;15.396;2024-01-25T14:18:38;27.60;61.60
8400;DHT22;4237;47.030;15.396;2024-01-25T14:21:07;27.80;61.00
8400;DHT22;4237;47.030;15.396;2024-01-25T14:23:36;27.20;61.00
8400;DHT22;4237;47.030;15.396;2024-01-25T14:26:04;26.90;60.20
8400;DHT22;4237;47.030;15.396;2024-01-25T14:28:33;26.90;60.90
8400;DHT22;4237;47.030;15.396;2024-01-25T14:31:02;26.70;61.30
8400;DHT22;4237;47.030;15.396;2024-01-25T14:33:30;27.20;61.40
8400;DHT22;4237;47.030;15.396;2024-01-25T14:35:59;26.50;60.60
8400;DHT22;4237;47.030;15.396;2024-01-25T14:38:27;26.50;60.60
8400;DHT22;4237;47.030;15.396;2024-01-25T14:40:56;26.40;60.90
8400;DHT22;4237;47.030;15.396;2024-01-25T14:43:24;26.30;60.40
8400;DHT22;4237;47.030;15.396;2024-01-25T14:45:53;26.30;60.50
8400;DHT22;4237;47.030;15.396;2024-01-25T14:48:22;24.80;62.20
8400;DHT22;4237;47.030;15.396;2024-01-25T14:50:50;24.80;62.40
8400;DHT22;4237;47.030;15.396;2024-01-25T14:53:19;25.10;61.80
8400;DHT22;4237;47.030;15.396;2024-01-25T14:55:47;24.50;62.10
8400;DHT22;4237;47.030;15.396;2024-01-25T14:58:16;24.90;62.50
8400;DHT22;4237;47.030;15.396;2024-01-25T15:00:46;23.80;63.70
8400;DHT22;4237;47.030;15.396;2024-01-25T15:03:15;22.00;66.30
8400;DHT22;4237;47.030;15.396;2024-01-25T15:05:44;21.10;65.50
8400;DHT22;4237;47.030;15.396;2024-01-25T15:08:12;19.60;66.30
8400;DHT22;4237;47.030;15.396;2024-01-25T15:10:41;17.80;68.30
8400;DHT22;4237;47.030;15.396;2024-01-25T15:13:09;16.30;72.30
8400;DHT22;4237;47.030;15.396;2024-01-25T15:15:38;15.00;79.10
8400;DHT22;4237;47.030;15.396;2024-01-25T15:18:06;13.30;88.20
8400;DHT22;4237;47.030;15.396;2024-01-25T15:20:35;12.40;92.10
8400;DHT22;4237;47.030;15.396;2024-01-25T15:23:03;11.90;91.60
8400;DHT22;4237;47.030;15.396;2024-01-25T15:25:32;11.40;92.30
8400;DHT22;4237;47.030;15.396;2024-01-25T15:28:00;11.10;93.60
8400;DHT22;4237;47.030;15.396;2024-01-25T15:30:29;10.70;97.00
8400;DHT22;4237;47.030;15.396;2024-01-25T15:32:58;10.10;98.70
8400;DHT22;4237;47.030;15.396;2024-01-25T15:35:27;9.70;99.90
8400;DHT22;4237;47.030;15.396;2024-01-25T15:37:55;9.50;99.90
8400;DHT22;4237;47.030;15.396;2024-01-25T15:40:24;9.10;99.90
8400;DHT22;4237;47.030;15.396;2024-01-25T15:42:52;8.80;99.90
8400;DHT22;4237;47.030;15.396;2024-01-25T15:45:23;8.60;99.90
8400;DHT22;4237;47.030;15.396;2024-01-25T15:47:51;8.40;99.90
8400;DHT22;4237;47.030;15.396;2024-01-25T15:50:20;8.20;99.90
8400;DHT22;4237;47.030;15.396;2024-01-25T15:52:49;8.10;99.90
8400;DHT22;4237;47.030;15.396;2024-01-25T15:55:17;7.90;99.90
8400;DHT22;4237;47.030;15.396;2024-01-25T15:57:46;7.80;99.90
8400;DHT22;4237;47.030;15.396;2024-01-25T16:00:15;7.60;99.90
8400;DHT22;4237;47.030;15.396;2024-01-25T16:02:44;7.50;99.90